Time;durP1;ratioP1;P1;durP2;ratioP2;P2;SDS_P1;SDS_P2;PMS_P1;PMS_P2;Temp;Humidity;BMP_temperature;BMP_pressure;BME280_temperature;BME280_humidity;BME280_pressure;Samples;Min_cycle;Max_cycle;Signal;HPM_P1;HPM_P2
2022/03/05 00:00:23;;;;;;;21.95;9.10;;;-1.50;99.90;;;;;;5050323;28;20048;-78
2022/03/05 00:02:48;;;;;;;21.98;9.15;;;-1.50;99.90;;;;;;5049153;28;20032;-77
2022/03/05 00:05:14;;;;;;;;;;;-1.60;99.90;;;;;;5049682;28;20031;-77
2022/03/05 00:07:40;;;;;;;20.65;8.10;;;-1.50;99.90;;;;;;5047979;28;20408;-77
2022/03/05 00:10:06;;;;;;;;;;;-1.60;99.90;;;;;;5048414;28;20456;-77
2022/03/05 00:12:31;;;;;;;17.83;7.82;;;-1.60;99.90;;;;;;5047782;28;19905;-77
2022/03/05 00:14:57;;;;;;;;;;;-1.60;99.90;;;;;;5048396;28;20492;-77
2022/03/05 00:17:23;;;;;;;18.38;9.15;;;-1.50;99.90;;;;;;5047301;28;19931;-77
2022/03/05 00:19:48;;;;;;;;;;;-1.60;99.90;;;;;;5048024;28;20033;-77
2022/03/05 00:22:14;;;;;;;16.75;8.15;;;-1.70;99.90;;;;;;5048831;28;19959;-77
2022/03/05 00:24:40;;;;;;;;;;;-1.80;99.90;;;;;;5048404;28;20387;-77
2022/03/05 00:27:05;;;;;;;16.85;7.60;;;-1.90;99.90;;;;;;5047616;28;20312;-77
2022/03/05 00:29:31;;;;;;;;;;;-1.90;99.90;;;;;;5048929;28;20513;-77
2022/03/05 00:31:56;;;;;;;17.67;8.25;;;-2.00;99.90;;;;;;5047468;28;20393;-77
2022/03/05 00:34:22;;;;;;;;;;;-2.10;99.90;;;;;;5047900;28;20029;-77
2022/03/05 00:36:48;;;;;;;20.23;8.95;;;-2.20;99.90;;;;;;5051194;28;19919;-76
2022/03/05 00:39:14;;;;;;;;;;;-2.20;99.90;;;;;;5054317;28;20029;-78
2022/03/05 00:41:39;;;;;;;32.65;14.52;;;-2.20;99.90;;;;;;5055506;28;20293;-77
2022/03/05 00:44:05;;;;;;;;;;;-2.20;99.90;;;;;;5054730;28;20036;-77
2022/03/05 00:46:30;;;;;;;27.38;12.10;;;-2.20;99.90;;;;;;5054459;28;19916;-77
2022/03/05 00:48:56;;;;;;;;;;;-2.20;99.90;;;;;;5055097;28;20036;-77
2022/03/05 00:51:22;;;;;;;21.77;7.97;;;-2.20;99.90;;;;;;5055923;28;20377;-77
2022/03/05 00:53:47;;;;;;;;;;;-2.10;99.90;;;;;;5055081;28;20051;-77
2022/03/05 00:56:13;;;;;;;18.65;7.88;;;-2.10;99.90;;;;;;5056009;28;19963;-77
2022/03/05 00:58:39;;;;;;;;;;;-2.10;99.90;;;;;;5056161;28;20033;-77
2022/03/05 01:01:04;;;;;;;15.85;6.65;;;-2.10;99.90;;;;;;5054765;28;19919;-77
2022/03/05 01:03:30;;;;;;;;;;;-2.10;99.90;;;;;;5054345;28;20029;-78
2022/03/05 01:05:56;;;;;;;18.38;8.70;;;-2.10;99.90;;;;;;5054156;28;20384;-78
2022/03/05 01:08:21;;;;;;;;;;;-2.10;99.90;;;;;;5054937;28;20036;-77
2022/03/05 01:10:47;;;;;;;16.40;7.90;;;-2.20;99.90;;;;;;5054123;28;20377;-76
2022/03/05 01:13:12;;;;;;;;;;;-2.20;99.90;;;;;;5056088;28;20047;-78
2022/03/05 01:15:38;;;;;;;9.85;5.32;;;-2.20;99.90;;;;;;5055359;28;20365;-77
2022/03/05 01:18:04;;;;;;;;;;;-2.00;99.90;;;;;;5056003;28;20025;-77
2022/03/05 01:20:30;;;;;;;11.00;5.65;;;-2.00;99.90;;;;;;5054153;28;20237;-76
2022/03/05 01:22:55;;;;;;;;;;;-2.00;99.90;;;;;;5055897;28;20713;-77
2022/03/05 01:25:21;;;;;;;15.35;7.00;;;-2.00;99.90;;;;;;5054113;28;20368;-77
2022/03/05 01:27:46;;;;;;;;;;;-2.00;99.90;;;;;;5056004;28;20029;-77
2022/03/05 01:30:13;;;;;;;15.38;6.07;;;-2.00;99.90;;;;;;5055528;28;20373;-77
2022/03/05 01:32:38;;;;;;;17.70;6.95;;;-2.10;99.90;;;;;;5055846;28;20049;-77
2022/03/05 01:35:04;;;;;;;;;;;-2.10;99.90;;;;;;5056288;28;20079;-77
2022/03/05 01:37:30;;;;;;;15.77;7.00;;;-2.10;99.90;;;;;;5053993;28;19909;-76
2022/03/05 01:39:56;;;;;;;;;;;-2.00;99.90;;;;;;5054973;28;20032;-78
2022/03/05 01:42:22;;;;;;;17.48;7.25;;;-2.00;99.90;;;;;;5054532;28;20390;-77
2022/03/05 01:44:48;;;;;;;12.32;5.85;;;-2.00;99.90;;;;;;5054742;28;20493;-77
2022/03/05 01:47:13;;;;;;;;;;;-2.00;99.90;;;;;;5056127;28;20075;-77
2022/03/05 01:49:39;;;;;;;13.68;5.78;;;-2.00;99.90;;;;;;5050752;28;19935;-77
2022/03/05 01:52:05;;;;;;;;;;;-2.00;99.90;;;;;;5051970;28;20493;-78
2022/03/05 01:54:31;;;;;;;15.32;7.25;;;-2.00;99.90;;;;;;5051687;28;19916;-78
2022/03/05 01:56:58;;;;;;;22.10;8.75;;;-1.90;99.90;;;;;;5053443;28;20112;-77
2022/03/05 01:59:24;;;;;;;10.25;5.25;;;-2.00;99.90;;;;;;5051941;28;20067;-77
2022/03/05 02:01:49;;;;;;;16.63;7.32;;;-2.00;99.90;;;;;;5052854;28;20028;-78
2022/03/05 02:04:15;;;;;;;;;;;-2.00;99.90;;;;;;5052081;28;20029;-78
2022/03/05 02:06:41;;;;;;;16.50;7.07;;;-2.00;99.90;;;;;;5053735;28;19911;-78
2022/03/05 02:09:06;;;;;;;;;;;-1.90;99.90;;;;;;5054275;28;20028;-77
2022/03/05 02:11:32;;;;;;;14.93;6.82;;;-1.90;99.90;;;;;;5054199;28;20373;-77
2022/03/05 02:13:58;;;;;;;;;;;-2.00;99.90;;;;;;5055794;28;20123;-78
2022/03/05 02:16:25;;;;;;;14.45;7.20;;;-2.00;99.90;;;;;;5056686;28;20377;-80
2022/03/05 02:18:52;;;;;;;16.52;7.07;;;-2.00;99.90;;;;;;5063040;28;20061;-78
2022/03/05 02:21:18;;;;;;;17.48;7.18;;;-2.10;99.90;;;;;;5057193;28;20024;-78
2022/03/05 02:23:44;;;;;;;;;;;-2.00;99.90;;;;;;5050900;28;20383;-78
2022/03/05 02:26:10;;;;;;;15.85;8.10;;;-2.10;99.90;;;;;;5051682;28;20019;-77
2022/03/05 02:28:36;;;;;;;;;;;-2.10;99.90;;;;;;5051776;28;20501;-78
2022/03/05 02:31:02;;;;;;;15.45;6.75;;;-2.10;99.90;;;;;;5051477;28;20003;-78
2022/03/05 02:33:28;;;;;;;18.45;7.95;;;-2.10;99.90;;;;;;5050271;28;20041;-78
2022/03/05 02:35:54;;;;;;;;;;;-2.10;99.90;;;;;;5050347;28;20405;-77
2022/03/05 02:38:21;;;;;;;18.02;8.10;;;-2.10;99.90;;;;;;5051448;28;19944;-78
2022/03/05 02:40:49;;;;;;;14.70;6.70;;;-2.10;99.90;;;;;;5050260;28;20029;-78
2022/03/05 02:43:15;;;;;;;18.88;7.63;;;-2.00;99.90;;;;;;5050860;28;20024;-78
2022/03/05 02:45:42;;;;;;;18.80;7.45;;;-1.90;99.90;;;;;;5050214;28;20517;-78
2022/03/05 02:48:10;;;;;;;16.85;7.65;;;-1.80;99.90;;;;;;5050979;28;20025;-78
2022/03/05 02:50:37;;;;;;;17.00;7.50;;;-1.70;99.90;;;;;;5052162;28;20111;-78
2022/03/05 02:53:03;;;;;;;18.15;7.88;;;-1.60;99.90;;;;;;5051251;28;20033;-78
2022/03/05 02:55:29;;;;;;;16.08;7.18;;;-1.50;99.90;;;;;;5050607;28;20040;-78
2022/03/05 02:57:54;;;;;;;;;;;-1.30;99.90;;;;;;5050261;28;20071;-79
2022/03/05 03:00:20;;;;;;;16.10;7.32;;;-1.20;99.90;;;;;;5050667;28;20441;-78
2022/03/05 03:02:46;;;;;;;;;;;-1.10;99.90;;;;;;5052284;28;20063;-78
2022/03/05 03:05:13;;;;;;;17.17;7.55;;;-1.10;99.90;;;;;;5052205;28;19904;-78
2022/03/05 03:07:38;;;;;;;17.15;7.45;;;-1.10;99.90;;;;;;5050954;28;20025;-78
2022/03/05 03:10:05;;;;;;;;;;;-1.00;99.90;;;;;;5052032;28;20090;-79
2022/03/05 03:12:31;;;;;;;15.85;7.10;;;-1.10;99.90;;;;;;5050637;28;19909;-79
2022/03/05 03:14:57;;;;;;;;;;;-1.00;99.90;;;;;;5050639;28;20064;-78
2022/03/05 03:17:23;;;;;;;13.82;6.50;;;-1.10;99.90;;;;;;5050118;28;19920;-78
2022/03/05 03:19:48;;;;;;;;;;;-1.10;99.90;;;;;;5050259;28;20033;-78
2022/03/05 03:22:14;;;;;;;15.52;7.15;;;-1.10;99.90;;;;;;5049755;28;19909;-79
2022/03/05 03:24:41;;;;;;;12.60;6.53;;;-1.10;99.90;;;;;;5052152;28;20028;-79
2022/03/05 03:27:08;;;;;;;17.42;7.60;;;-1.00;99.90;;;;;;5050234;28;20028;-78
2022/03/05 03:29:33;;;;;;;16.55;6.47;;;-1.00;99.90;;;;;;5050190;28;20033;-77
2022/03/05 03:31:59;;;;;;;;;;;-1.00;99.90;;;;;;5051316;28;20593;-78
2022/03/05 03:34:25;;;;;;;14.55;6.53;;;-0.90;99.90;;;;;;5049930;28;19912;-78
2022/03/05 03:36:50;;;;;;;;;;;-0.90;99.90;;;;;;5050566;28;20108;-78
2022/03/05 03:39:16;;;;;;;13.13;6.18;;;-0.90;99.90;;;;;;5051233;28;20284;-78
2022/03/05 03:41:42;;;;;;;;;;;-0.90;99.90;;;;;;5050036;28;20495;-78
2022/03/05 03:44:07;;;;;;;14.77;7.13;;;-0.90;99.90;;;;;;5050370;28;19909;-78
2022/03/05 03:46:33;;;;;;;;;;;-0.90;99.90;;;;;;5051631;28;20110;-78
2022/03/05 03:48:59;;;;;;;10.75;5.28;;;-0.80;99.90;;;;;;5051475;28;19916;-77
2022/03/05 03:51:24;;;;;;;;;;;-0.90;99.90;;;;;;5050105;28;20029;-78
2022/03/05 03:53:50;;;;;;;14.18;5.75;;;-0.80;99.90;;;;;;5050335;28;20431;-78
2022/03/05 03:56:16;;;;;;;16.13;6.45;;;-0.80;99.90;;;;;;5050978;28;20036;-78
2022/03/05 03:58:42;;;;;;;;;;;-0.80;99.90;;;;;;5051396;28;20033;-78
2022/03/05 04:01:07;;;;;;;13.18;7.07;;;-0.80;99.90;;;;;;5049272;28;20338;-77
2022/03/05 04:03:33;;;;;;;;;;;-0.70;99.90;;;;;;5050543;28;20028;-78
2022/03/05 04:05:59;;;;;;;13.57;7.05;;;-0.70;99.90;;;;;;5050188;28;19913;-79
2022/03/05 04:08:42;;;;;;;;;;;-0.60;99.90;;;;;;5051330;28;20032;-78
2022/03/05 04:11:13;;;;;;;15.57;7.57;;;-0.70;99.90;;;;;;5049111;28;20007;-78
2022/03/05 04:13:40;;;;;;;17.45;8.02;;;-0.60;99.90;;;;;;5050437;28;20025;-77
2022/03/05 04:16:09;;;;;;;15.52;6.03;;;-0.50;99.90;;;;;;5050674;28;20047;-78
2022/03/05 04:18:35;;;;;;;13.55;7.03;;;-0.50;99.90;;;;;;5052297;28;20033;-78
2022/03/05 04:21:01;;;;;;;;;;;-0.50;99.90;;;;;;5050002;28;20090;-78
2022/03/05 04:23:27;;;;;;;15.23;6.72;;;-0.50;99.90;;;;;;5050391;28;19970;-79
2022/03/05 04:25:53;;;;;;;14.23;6.60;;;-0.50;99.90;;;;;;5052285;28;20025;-79
2022/03/05 04:28:19;;;;;;;;;;;-0.40;99.90;;;;;;5054919;28;20028;-79
2022/03/05 04:30:45;;;;;;;16.70;7.82;;;-0.40;99.90;;;;;;5054716;28;19927;-78
2022/03/05 04:33:10;;;;;;;;;;;-0.30;99.90;;;;;;5052737;28;20021;-78
2022/03/05 04:35:37;;;;;;;13.23;5.93;;;-0.30;99.90;;;;;;5049786;28;19916;-77
2022/03/05 04:38:03;;;;;;;17.08;7.43;;;-0.30;99.90;;;;;;5049331;28;20120;-77
2022/03/05 04:40:28;;;;;;;;;;;-0.20;99.90;;;;;;5050425;28;20512;-78
2022/03/05 04:42:54;;;;;;;15.40;6.75;;;-0.20;99.90;;;;;;5052162;28;19913;-79
2022/03/05 04:45:19;;;;;;;;;;;-0.20;99.90;;;;;;5053442;28;20035;-79
2022/03/05 04:47:45;;;;;;;14.75;7.63;;;-0.20;99.90;;;;;;5051633;28;20433;-78
2022/03/05 04:50:10;;;;;;;;;;;-0.10;99.90;;;;;;5049995;28;20025;-77
2022/03/05 04:52:36;;;;;;;14.57;7.43;;;-0.10;99.90;;;;;;5050968;28;19915;-77
2022/03/05 04:55:03;;;;;;;;;;;-0.10;99.90;;;;;;5051171;28;20029;-78
2022/03/05 04:57:28;;;;;;;15.68;7.57;;;0.00;99.90;;;;;;5053310;28;19913;-78
2022/03/05 04:59:54;;;;;;;;;;;0.00;99.90;;;;;;5052333;28;20112;-77
2022/03/05 05:02:20;;;;;;;20.67;9.05;;;0.10;99.90;;;;;;5049045;28;19909;-77
2022/03/05 05:04:46;;;;;;;;;;;0.10;99.90;;;;;;5048019;28;20028;-77
2022/03/05 05:07:12;;;;;;;15.10;7.80;;;0.10;99.90;;;;;;5048640;28;19912;-77
2022/03/05 05:09:38;;;;;;;;;;;0.20;99.90;;;;;;5047513;28;20512;-77
2022/03/05 05:12:05;;;;;;;18.17;7.97;;;0.20;99.90;;;;;;5047180;28;20387;-77
2022/03/05 05:14:30;;;;;;;18.33;8.50;;;0.30;99.90;;;;;;5048499;28;20287;-77
2022/03/05 05:16:56;;;;;;;;;;;0.50;99.90;;;;;;5048853;28;20036;-77
2022/03/05 05:19:24;;;;;;;17.98;8.73;;;0.50;99.90;;;;;;5047231;28;19931;-78
2022/03/05 05:21:52;;;;;;;20.90;9.02;;;0.60;99.90;;;;;;5047234;28;20032;-78
2022/03/05 05:24:18;;;;;;;18.42;9.40;;;0.60;99.90;;;;;;5050298;28;20021;-77
2022/03/05 05:26:43;;;;;;;;;;;0.70;99.90;;;;;;5052824;28;20033;-77
2022/03/05 05:29:09;;;;;;;16.67;7.72;;;0.70;99.90;;;;;;5050947;28;19940;-77
2022/03/05 05:31:35;;;;;;;17.23;8.88;;;0.70;99.90;;;;;;5052183;28;20517;-77
2022/03/05 05:34:01;;;;;;;;;;;0.70;99.90;;;;;;5051478;28;20039;-78
2022/03/05 05:36:26;;;;;;;19.58;9.07;;;0.70;99.90;;;;;;5050840;28;20305;-77
2022/03/05 05:38:52;;;;;;;;;;;0.80;99.90;;;;;;5053072;28;20401;-77
2022/03/05 05:41:18;;;;;;;17.52;8.80;;;0.80;99.90;;;;;;5052499;28;19904;-78
2022/03/05 05:43:44;;;;;;;17.48;9.10;;;0.90;99.90;;;;;;5052618;28;20121;-77
2022/03/05 05:46:13;;;;;;;20.23;9.35;;;0.90;99.90;;;;;;5052153;28;20111;-78
2022/03/05 05:48:39;;;;;;;21.08;10.50;;;0.90;99.90;;;;;;5052266;28;20028;-78
2022/03/05 05:51:05;;;;;;;;;;;1.10;99.90;;;;;;5053743;28;20029;-78
2022/03/05 05:53:30;;;;;;;20.92;10.32;;;1.00;99.90;;;;;;5052459;28;19905;-77
2022/03/05 05:55:56;;;;;;;;;;;1.00;99.90;;;;;;5052866;28;20037;-78
2022/03/05 05:58:25;;;;;;;24.88;12.00;;;1.00;99.90;;;;;;5053355;28;19913;-76
2022/03/05 06:00:51;;;;;;;25.73;11.48;;;1.10;99.90;;;;;;5051220;28;20100;-76
2022/03/05 06:03:16;;;;;;;;;;;1.20;99.90;;;;;;5051333;28;20116;-77
2022/03/05 06:05:42;;;;;;;19.95;10.30;;;1.30;99.90;;;;;;5054359;28;19981;-78
2022/03/05 06:08:08;;;;;;;29.75;13.35;;;1.40;99.90;;;;;;5052742;28;20133;-78
2022/03/05 06:10:34;;;;;;;;;;;1.50;99.90;;;;;;5052951;28;20040;-77
2022/03/05 06:12:59;;;;;;;40.63;21.48;;;1.50;99.90;;;;;;5052208;28;19909;-76
2022/03/05 06:15:25;;;;;;;;;;;1.60;99.90;;;;;;5054800;28;20075;-76
2022/03/05 06:17:52;;;;;;;34.63;17.20;;;1.70;99.90;;;;;;5053242;28;20435;-76
2022/03/05 06:20:18;;;;;;;40.20;17.35;;;1.80;99.90;;;;;;5054035;28;20033;-77
2022/03/05 06:22:44;;;;;;;;;;;1.80;99.90;;;;;;5055514;28;20657;-78
2022/03/05 06:25:09;;;;;;;36.88;16.15;;;1.90;99.90;;;;;;5055621;28;19905;-77
2022/03/05 06:27:35;;;;;;;;;;;2.00;99.90;;;;;;5056943;28;20037;-79
2022/03/05 06:30:01;;;;;;;23.40;11.88;;;2.00;99.90;;;;;;5056777;28;19931;-79
2022/03/05 06:32:27;;;;;;;;;;;2.20;99.90;;;;;;5057255;28;20112;-79
2022/03/05 06:34:54;;;;;;;16.80;9.10;;;2.30;99.70;;;;;;5056646;28;19959;-79
2022/03/05 06:37:21;;;;;;;15.35;8.80;;;2.40;99.60;;;;;;5057540;28;20028;-79
2022/03/05 06:39:47;;;;;;;19.60;9.50;;;2.50;99.30;;;;;;5056883;28;20114;-78
2022/03/05 06:42:12;;;;;;;17.88;9.68;;;2.60;99.30;;;;;;5052928;28;20075;-78
2022/03/05 06:44:38;;;;;;;21.05;10.05;;;2.70;99.10;;;;;;5058096;28;20029;-79
2022/03/05 06:47:05;;;;;;;19.40;10.02;;;3.00;98.40;;;;;;5057847;28;20033;-80
2022/03/05 06:49:30;;;;;;;25.63;10.95;;;3.40;96.90;;;;;;5056283;28;20025;-79
2022/03/05 06:51:56;;;;;;;20.80;9.30;;;3.80;95.00;;;;;;5055647;28;20499;-79
2022/03/05 06:54:21;;;;;;;;;;;3.90;93.40;;;;;;5054451;28;20037;-78
2022/03/05 06:56:47;;;;;;;22.15;9.23;;;4.00;90.80;;;;;;5053185;28;19904;-78
2022/03/05 06:59:13;;;;;;;;;;;4.20;81.20;;;;;;5051862;28;20033;-78
2022/03/05 07:01:38;;;;;;;21.60;10.02;;;4.30;84.50;;;;;;5051418;28;19909;-77
2022/03/05 07:04:04;;;;;;;20.65;10.13;;;4.50;86.40;;;;;;5054465;28;20412;-79
2022/03/05 07:06:30;;;;;;;13.43;8.27;;;4.80;83.80;;;;;;5059987;28;20029;-77
2022/03/05 07:08:56;;;;;;;15.55;8.32;;;4.80;83.30;;;;;;5056118;28;20017;-78
2022/03/05 07:11:21;;;;;;;14.95;8.30;;;4.80;80.90;;;;;;5053859;28;20029;-77
2022/03/05 07:13:47;;;;;;;18.30;9.77;;;4.80;80.50;;;;;;5051605;28;20048;-79
2022/03/05 07:16:13;;;;;;;17.13;9.63;;;4.70;82.00;;;;;;5051558;28;20429;-77
2022/03/05 07:18:40;;;;;;;24.23;11.82;;;4.70;83.50;;;;;;5053564;28;20398;-78
2022/03/05 07:21:06;;;;;;;29.45;16.25;;;4.70;84.20;;;;;;5052043;28;20049;-77
2022/03/05 07:23:31;;;;;;;20.55;12.88;;;4.70;84.50;;;;;;5051490;28;20029;-77
2022/03/05 07:25:57;;;;;;;;;;;4.70;85.20;;;;;;5054724;28;20112;-76
2022/03/05 07:28:23;;;;;;;19.50;10.55;;;4.70;83.70;;;;;;5053627;28;20333;-77
2022/03/05 07:30:48;;;;;;;21.25;10.60;;;4.60;84.60;;;;;;5053811;28;20033;-78
2022/03/05 07:33:14;;;;;;;22.60;11.98;;;4.60;85.10;;;;;;5055158;28;20049;-77
2022/03/05 07:35:40;;;;;;;;;;;4.60;86.00;;;;;;5051624;28;20067;-78
2022/03/05 07:38:06;;;;;;;24.10;11.15;;;4.60;85.50;;;;;;5049792;28;19909;-77
2022/03/05 07:40:31;;;;;;;;;;;4.70;76.50;;;;;;5048804;28;20033;-77
2022/03/05 07:42:57;;;;;;;16.33;9.07;;;4.70;73.20;;;;;;5048598;28;20014;-77
2022/03/05 07:45:26;;;;;;;26.50;13.98;;;4.80;71.70;;;;;;5049104;28;20133;-76
2022/03/05 07:47:51;;;;;;;34.45;15.15;;;4.60;74.90;;;;;;5048755;28;20025;-77
2022/03/05 07:50:17;;;;;;;23.45;12.40;;;4.50;76.40;;;;;;5048951;28;20044;-77
2022/03/05 07:52:43;;;;;;;24.38;11.43;;;4.70;74.80;;;;;;5048483;28;20520;-78
2022/03/05 07:55:09;;;;;;;44.40;20.17;;;4.70;75.80;;;;;;5049681;28;20444;-77
2022/03/05 07:57:34;;;;;;;;;;;4.70;75.10;;;;;;5048905;28;20033;-77
2022/03/05 08:00:00;;;;;;;20.77;9.43;;;4.80;75.90;;;;;;5049487;28;19905;-77
2022/03/05 08:02:26;;;;;;;;;;;4.90;76.50;;;;;;5048741;28;20040;-77
2022/03/05 08:04:51;;;;;;;29.40;14.40;;;4.90;75.30;;;;;;5049649;28;20361;-78
2022/03/05 08:07:17;;;;;;;28.40;12.48;;;4.80;76.40;;;;;;5048008;28;20025;-77
2022/03/05 08:09:43;;;;;;;25.20;12.25;;;4.90;74.50;;;;;;5050011;28;20493;-77
2022/03/05 08:12:09;;;;;;;;;;;5.00;76.60;;;;;;5048231;28;20025;-77
2022/03/05 08:14:36;;;;;;;20.53;9.83;;;5.00;73.50;;;;;;5050303;28;19912;-77
2022/03/05 08:17:02;;;;;;;17.17;9.27;;;5.30;69.30;;;;;;5049738;28;20033;-78
2022/03/05 08:19:28;;;;;;;17.80;8.32;;;5.40;68.50;;;;;;5049612;28;20033;-78
2022/03/05 08:21:54;;;;;;;15.05;8.52;;;5.40;67.20;;;;;;5049449;28;20818;-78
2022/03/05 08:24:19;;;;;;;16.25;8.15;;;5.30;66.90;;;;;;5049566;28;20020;-78
2022/03/05 08:26:45;;;;;;;16.48;8.90;;;5.30;67.90;;;;;;5049636;28;20045;-78
2022/03/05 08:29:11;;;;;;;16.55;9.10;;;5.40;65.10;;;;;;5049585;28;20025;-78
2022/03/05 08:31:36;;;;;;;;;;;5.50;64.80;;;;;;5048178;28;20061;-77
2022/03/05 08:34:02;;;;;;;19.83;8.50;;;5.40;63.90;;;;;;5048182;28;20304;-77
2022/03/05 08:36:28;;;;;;;;;;;5.40;65.20;;;;;;5050007;28;20107;-78
2022/03/05 08:38:55;;;;;;;16.40;6.32;;;5.60;61.50;;;;;;5048389;28;20358;-78
2022/03/05 08:41:21;;;;;;;13.55;5.93;;;5.70;61.70;;;;;;5049384;28;20041;-78
2022/03/05 08:43:46;;;;;;;11.25;5.80;;;5.70;60.40;;;;;;5047871;28;20022;-77
2022/03/05 08:46:12;;;;;;;;;;;5.70;61.10;;;;;;5051182;28;20052;-78
2022/03/05 08:48:38;;;;;;;11.45;6.38;;;5.80;60.40;;;;;;5050173;28;19911;-77
2022/03/05 08:51:03;;;;;;;;;;;6.10;58.60;;;;;;5050288;28;20375;-78
2022/03/05 08:53:29;;;;;;;10.98;5.88;;;6.40;55.80;;;;;;5049377;28;20258;-78
2022/03/05 08:55:55;;;;;;;11.02;5.50;;;6.40;55.60;;;;;;5050095;28;20037;-77
2022/03/05 08:58:21;;;;;;;9.52;4.15;;;6.70;54.10;;;;;;5053168;28;20075;-78
2022/03/05 09:00:48;;;;;;;9.52;4.10;;;7.00;53.20;;;;;;5053277;28;20037;-77
2022/03/05 09:03:14;;;;;;;7.10;3.50;;;7.10;52.20;;;;;;5053838;28;20021;-78
2022/03/05 09:05:41;;;;;;;33.70;16.45;;;7.40;50.40;;;;;;5052935;28;20021;-78
2022/03/05 09:08:06;;;;;;;;;;;7.80;50.60;;;;;;5053132;28;20025;-78
2022/03/05 09:10:32;;;;;;;7.47;3.30;;;8.50;47.90;;;;;;5053162;28;19905;-78
2022/03/05 09:12:58;;;;;;;;;;;9.00;45.00;;;;;;5053789;28;20405;-78
2022/03/05 09:15:24;;;;;;;11.82;6.82;;;8.90;45.50;;;;;;5051704;28;20373;-78
2022/03/05 09:17:50;;;;;;;6.60;3.00;;;9.00;45.40;;;;;;5051060;28;20021;-78
2022/03/05 09:20:15;;;;;;;;;;;9.70;43.20;;;;;;5053831;28;20048;-77
2022/03/05 09:22:41;;;;;;;7.50;2.88;;;10.00;41.40;;;;;;5051937;28;20380;-79
2022/03/05 09:25:08;;;;;;;;;;;10.40;40.20;;;;;;5051118;28;20064;-80
2022/03/05 09:27:34;;;;;;;9.82;4.78;;;10.60;40.00;;;;;;5050399;28;20436;-79
2022/03/05 09:29:59;;;;;;;;;;;11.00;39.10;;;;;;5051003;28;20029;-80
2022/03/05 09:32:26;;;;;;;9.40;4.90;;;11.60;38.00;;;;;;5050156;28;20385;-81
2022/03/05 09:34:52;;;;;;;8.65;4.60;;;11.80;36.70;;;;;;5050559;28;20037;-80
2022/03/05 09:37:17;;;;;;;;;;;11.70;36.20;;;;;;5050640;28;20036;-80
2022/03/05 09:39:43;;;;;;;10.55;4.82;;;11.60;36.10;;;;;;5050133;28;20439;-80
2022/03/05 09:42:09;;;;;;;;;;;11.70;36.10;;;;;;5050823;28;20017;-77
2022/03/05 09:44:35;;;;;;;10.75;4.63;;;11.40;36.50;;;;;;5051619;28;20338;-77
2022/03/05 09:47:01;;;;;;;;;;;11.60;36.30;;;;;;5052123;28;20051;-82
2022/03/05 09:49:27;;;;;;;7.10;4.40;;;11.50;34.60;;;;;;5050053;28;20482;-79
2022/03/05 09:51:53;;;;;;;10.65;4.75;;;10.80;35.80;;;;;;5051245;28;20033;-78
2022/03/05 09:54:19;;;;;;;;;;;10.80;36.50;;;;;;5050670;28;20405;-78
2022/03/05 09:56:45;;;;;;;6.45;4.18;;;10.90;36.00;;;;;;5049993;28;19913;-80
2022/03/05 09:59:11;;;;;;;;;;;11.20;36.00;;;;;;5050472;28;20021;-81
2022/03/05 10:01:38;;;;;;;7.97;4.43;;;11.70;35.00;;;;;;5049954;28;20655;-80
2022/03/05 10:04:04;;;;;;;8.70;4.22;;;11.60;34.20;;;;;;5051365;28;20071;-80
2022/03/05 10:06:30;;;;;;;8.25;4.82;;;11.80;34.60;;;;;;5049911;28;20538;-80
2022/03/05 10:08:56;;;;;;;;;;;12.10;32.80;;;;;;5049751;28;20107;-80
2022/03/05 10:11:23;;;;;;;7.13;3.42;;;12.10;32.40;;;;;;5051324;28;19904;-78
2022/03/05 10:13:49;;;;;;;7.15;3.35;;;11.60;32.10;;;;;;5051748;28;20040;-77
2022/03/05 10:16:24;;;;;;;;;;;10.10;34.10;;;;;;5050738;28;20037;-77
2022/03/05 10:18:50;;;;;;;6.22;3.33;;;9.30;35.90;;;;;;5051109;28;19950;-78
2022/03/05 10:21:16;;;;;;;8.90;4.78;;;9.00;36.60;;;;;;5051692;28;20033;-77
2022/03/05 10:23:47;;;;;;;20.58;12.20;;;8.90;37.20;;;;;;5052010;28;20037;-78
2022/03/05 10:26:21;;;;;;;7.78;3.28;;;9.30;36.80;;;;;;5052434;28;20028;-77
2022/03/05 10:28:47;;;;;;;6.80;4.30;;;9.50;35.60;;;;;;5050638;28;20021;-77
2022/03/05 10:31:13;;;;;;;;;;;9.50;36.60;;;;;;5051102;28;20527;-77
2022/03/05 10:33:48;;;;;;;6.60;3.08;;;9.50;36.20;;;;;;5050241;28;20011;-77
2022/03/05 10:36:24;;;;;;;6.07;2.85;;;9.80;36.20;;;;;;5050160;28;20516;-78
2022/03/05 10:38:55;;;;;;;9.93;6.13;;;10.10;35.50;;;;;;5050082;28;20025;-77
2022/03/05 10:41:30;;;;;;;5.57;3.25;;;10.50;33.90;;;;;;5049125;28;20033;-77
2022/03/05 10:44:17;;;;;;;4.25;2.40;;;10.20;34.10;;;;;;5050197;28;20033;-77
2022/03/05 10:46:53;;;;;;;7.20;3.63;;;9.70;34.80;;;;;;5050300;28;20033;-78
2022/03/05 10:49:25;;;;;;;5.05;2.45;;;9.30;35.90;;;;;;5050326;28;20029;-77
2022/03/05 10:52:11;;;;;;;3.65;2.15;;;9.20;35.80;;;;;;5050716;28;20025;-77
2022/03/05 10:54:40;;;;;;;7.78;4.28;;;8.80;36.10;;;;;;5049703;28;20063;-77
2022/03/05 10:57:08;;;;;;;7.70;4.05;;;8.40;37.30;;;;;;5049465;28;20052;-77
2022/03/05 10:59:36;;;;;;;7.25;3.00;;;8.20;37.40;;;;;;5050501;28;20490;-77
2022/03/05 11:02:02;;;;;;;9.40;4.40;;;7.90;38.10;;;;;;5050984;28;20513;-78
2022/03/05 11:04:29;;;;;;;6.15;2.20;;;7.80;39.10;;;;;;5050933;28;20029;-78
2022/03/05 11:06:58;;;;;;;7.80;3.80;;;8.00;37.50;;;;;;5050303;28;20048;-77
2022/03/05 11:09:25;;;;;;;6.00;2.70;;;8.10;39.10;;;;;;5051835;28;20040;-78
2022/03/05 11:11:52;;;;;;;12.40;6.15;;;8.20;38.00;;;;;;5052122;28;20639;-77
2022/03/05 11:14:18;;;;;;;10.27;4.93;;;8.40;38.80;;;;;;5050031;28;20553;-78
2022/03/05 11:16:44;;;;;;;10.77;4.40;;;8.60;37.70;;;;;;5049199;28;20062;-77
2022/03/05 11:19:10;;;;;;;;;;;8.50;38.30;;;;;;5051555;28;20033;-78
2022/03/05 11:21:35;;;;;;;11.25;4.53;;;8.40;38.60;;;;;;5048610;28;19904;-77
2022/03/05 11:24:01;;;;;;;;;;;8.30;38.20;;;;;;5051040;28;20021;-76
2022/03/05 11:26:30;;;;;;;10.43;3.45;;;8.10;37.80;;;;;;5050360;28;20352;-77
2022/03/05 11:28:57;;;;;;;4.95;1.88;;;7.80;38.00;;;;;;5050765;28;20029;-76
2022/03/05 11:31:28;;;;;;;6.72;3.50;;;7.50;38.60;;;;;;5049817;28;20033;-76
2022/03/05 11:33:54;;;;;;;9.43;3.67;;;7.20;39.80;;;;;;5049649;28;20059;-77
2022/03/05 11:36:25;;;;;;;4.72;2.10;;;7.20;40.00;;;;;;5050300;28;20450;-76
2022/03/05 11:39:16;;;;;;;7.20;3.58;;;7.40;38.90;;;;;;5048450;28;20051;-77
2022/03/05 11:42:03;;;;;;;6.85;2.70;;;7.30;38.60;;;;;;5050000;28;20032;-77
2022/03/05 11:44:44;;;;;;;8.48;2.95;;;7.20;39.00;;;;;;5050384;28;20406;-77
2022/03/05 11:47:18;;;;;;;12.55;4.00;;;7.40;40.10;;;;;;5049271;28;20048;-77
2022/03/05 11:49:59;;;;;;;3.10;1.67;;;7.70;39.10;;;;;;5048816;28;20055;-78
2022/03/05 11:52:40;;;;;;;6.18;2.30;;;7.90;37.40;;;;;;5050255;28;20060;-77
2022/03/05 11:55:15;;;;;;;10.88;5.47;;;7.90;37.10;;;;;;5048829;28;20033;-77
2022/03/05 11:58:16;;;;;;;10.45;2.90;;;8.10;37.90;;;;;;5048641;28;20033;-77
2022/03/05 12:00:44;;;;;;;8.35;3.03;;;8.20;36.30;;;;;;5049104;28;20051;-77
2022/03/05 12:03:09;;;;;;;6.45;2.45;;;8.10;37.10;;;;;;5048781;28;20048;-77
2022/03/05 12:05:38;;;;;;;4.00;1.58;;;8.00;37.10;;;;;;5049547;28;20089;-78
2022/03/05 12:08:09;;;;;;;3.42;1.60;;;7.60;37.00;;;;;;5050574;28;20033;-78
2022/03/05 12:10:38;;;;;;;4.03;1.77;;;7.60;37.20;;;;;;5049171;28;20060;-77
2022/03/05 12:13:06;;;;;;;5.57;2.08;;;7.70;37.30;;;;;;5050519;28;20031;-78
2022/03/05 12:15:45;;;;;;;2.95;1.33;;;7.50;37.00;;;;;;5051615;28;20097;-78
2022/03/05 12:18:14;;;;;;;4.28;2.08;;;7.60;37.00;;;;;;5050998;28;20421;-77
2022/03/05 12:20:44;;;;;;;3.05;1.27;;;7.50;37.20;;;;;;5051770;28;20544;-77
2022/03/05 12:23:15;;;;;;;5.25;2.15;;;7.50;37.70;;;;;;5052060;28;20091;-77
2022/03/05 12:25:45;;;;;;;6.93;3.60;;;7.50;38.10;;;;;;5052647;28;20097;-78
2022/03/05 12:28:23;;;;;;;5.82;2.97;;;7.70;38.30;;;;;;5051102;28;20060;-77
2022/03/05 12:30:51;;;;;;;5.72;2.42;;;8.00;36.80;;;;;;5050857;28;20036;-77
2022/03/05 12:33:18;;;;;;;6.25;3.17;;;8.00;36.50;;;;;;5050279;28;20449;-78
2022/03/05 12:35:47;;;;;;;11.40;4.95;;;7.90;36.10;;;;;;5050968;28;20045;-77
2022/03/05 12:38:20;;;;;;;8.45;2.95;;;7.80;35.70;;;;;;5052438;28;20029;-76
2022/03/05 12:40:46;;;;;;;4.25;2.15;;;7.60;36.20;;;;;;5053207;28;20078;-77
2022/03/05 12:43:12;;;;;;;10.07;4.30;;;7.40;37.40;;;;;;5056069;28;20029;-78
2022/03/05 12:45:40;;;;;;;11.30;5.10;;;7.30;37.70;;;;;;5054669;28;20037;-77
2022/03/05 12:48:13;;;;;;;11.43;5.50;;;7.10;37.90;;;;;;5048658;28;20033;-77
2022/03/05 12:50:45;;;;;;;5.50;2.92;;;7.00;38.00;;;;;;5048948;28;20025;-78
2022/03/05 12:53:37;;;;;;;11.32;4.97;;;6.90;38.60;;;;;;5047764;28;20029;-78
2022/03/05 12:56:07;;;;;;;5.20;2.45;;;7.00;38.10;;;;;;5046154;28;20060;-78
2022/03/05 12:58:36;;;;;;;4.80;2.10;;;7.00;38.20;;;;;;5047944;28;20033;-78
2022/03/05 13:01:07;;;;;;;3.88;2.10;;;7.00;38.40;;;;;;5048949;28;20021;-78
2022/03/05 13:03:37;;;;;;;8.98;2.90;;;7.20;38.50;;;;;;5047740;28;20029;-78
2022/03/05 13:06:06;;;;;;;5.03;2.85;;;7.10;38.70;;;;;;5047557;28;20072;-77
2022/03/05 13:08:38;;;;;;;9.43;4.57;;;7.00;38.70;;;;;;5048986;28;20082;-78